Miramar Beach, Florida
Current Conditions -  °F | °C
As of 9:53 AM on Monday 24 Nov 2014 (Local Time) from KDTS Reporting Station
Clear Clear  
Wind Chill: 73°   Ceiling: Unl
Heat Index: 73°   Visibility: 8mi
Dew Point: 68°   Wind: 7mph
Humidity: 84%   Direction: 250°WSW
Pressure: 29.86"   Gusts: NA
Location:  30.3738°N, 86.3602°W
Report Text: KDTS 241553Z AUTO 25006KT 8SM CLR 23/20 A2986 RMK AO2 SLP112 T02280200 TSNO $
Loading
Personal Weather Stations






























Interactive Weather Map New forecast layout! Learn more

10-Day Weather Forecast

Advertisements
Track Severe Weather on mobile